createdAt,value
2019-05-12T00:01:12.170Z,10.90
2019-05-12T00:03:42.580Z,10.80
2019-05-12T00:06:13.084Z,10.80
2019-05-12T00:08:43.555Z,10.80
2019-05-12T00:11:13.989Z,10.80
2019-05-12T00:13:44.382Z,10.80
2019-05-12T00:16:14.815Z,10.70
2019-05-12T00:18:45.210Z,10.70
2019-05-12T00:21:17.693Z,10.60
2019-05-12T00:24:07.922Z,10.60
2019-05-12T00:26:38.376Z,10.50
2019-05-12T00:29:08.903Z,10.50
2019-05-12T00:31:39.327Z,10.50
2019-05-12T00:34:09.719Z,10.40
2019-05-12T00:36:40.152Z,10.30
2019-05-12T00:39:10.544Z,10.30
2019-05-12T00:41:44.246Z,10.30
2019-05-12T00:44:13.072Z,10.20
2019-05-12T00:46:43.504Z,10.20
2019-05-12T00:49:13.933Z,10.20
2019-05-12T00:51:44.357Z,10.10
2019-05-12T00:54:14.785Z,10.10
2019-05-12T00:56:45.215Z,10.10
2019-05-12T00:59:15.641Z,10.00
2019-05-12T01:01:48.037Z,10.00
2019-05-12T01:04:18.155Z,10.00
2019-05-12T01:06:51.666Z,10.00
2019-05-12T01:09:20.687Z,10.00
2019-05-12T01:11:51.082Z,10.00
2019-05-12T01:14:21.588Z,10.00
2019-05-12T01:16:51.967Z,9.90
2019-05-12T01:19:22.387Z,9.90
2019-05-12T01:21:52.774Z,9.90
2019-05-12T01:24:23.202Z,9.90
2019-05-12T01:26:53.627Z,9.90
2019-05-12T01:29:24.050Z,9.90
2019-05-12T01:31:56.085Z,9.90
2019-05-12T01:34:27.725Z,9.80
2019-05-12T01:37:00.082Z,9.80
2019-05-12T01:39:30.506Z,9.80
2019-05-12T01:42:00.964Z,9.80
2019-05-12T01:44:31.484Z,9.70
2019-05-12T01:47:01.886Z,9.70
2019-05-12T01:49:32.372Z,9.70
2019-05-12T01:52:02.755Z,9.70
2019-05-12T01:54:33.179Z,9.70
2019-05-12T01:57:03.566Z,9.70
2019-05-12T01:59:33.991Z,9.70
2019-05-12T02:02:05.045Z,9.60
2019-05-12T02:04:53.023Z,9.60
2019-05-12T02:07:24.278Z,9.50
2019-05-12T02:09:54.782Z,9.50
2019-05-12T02:12:25.169Z,9.50
2019-05-12T02:14:55.595Z,9.50
2019-05-12T02:17:28.198Z,9.50
2019-05-12T02:19:58.702Z,9.60
2019-05-12T02:22:29.158Z,9.60
2019-05-12T02:24:59.608Z,9.70
2019-05-12T02:27:30.780Z,9.70
2019-05-12T02:30:01.554Z,9.70
2019-05-12T02:32:43.384Z,9.70
2019-05-12T02:35:05.966Z,9.60
2019-05-12T02:37:36.518Z,9.60
2019-05-12T02:40:08.958Z,9.50
2019-05-12T02:42:39.370Z,9.50
2019-05-12T02:45:10.467Z,9.40
2019-05-12T02:47:40.889Z,9.30
2019-05-12T02:50:14.479Z,9.30
2019-05-12T02:52:44.426Z,9.30
2019-05-12T02:55:15.171Z,9.20
2019-05-12T02:57:46.612Z,9.30
2019-05-12T03:00:19.400Z,9.30
2019-05-12T03:02:54.675Z,9.30
2019-05-12T03:05:24.966Z,9.30
2019-05-12T03:07:58.214Z,9.30
2019-05-12T03:10:28.664Z,9.20
2019-05-12T03:12:59.086Z,9.30
2019-05-12T03:15:29.466Z,9.30
2019-05-12T03:17:59.890Z,9.30
2019-05-12T03:20:30.343Z,9.20
2019-05-12T03:23:05.933Z,9.20
2019-05-12T03:25:35.747Z,9.20
2019-05-12T03:28:08.585Z,9.10
2019-05-12T03:30:39.828Z,9.10
2019-05-12T03:33:11.696Z,9.10
2019-05-12T03:35:51.747Z,9.10
2019-05-12T03:38:15.138Z,9.10
2019-05-12T03:40:45.622Z,9.20
2019-05-12T03:43:16.041Z,9.10
2019-05-12T03:45:46.499Z,9.10
2019-05-12T03:48:16.948Z,9.10
2019-05-12T03:50:47.411Z,9.20
2019-05-12T03:53:17.836Z,9.10
2019-05-12T03:55:48.223Z,9.20
2019-05-12T03:58:18.669Z,9.20
2019-05-12T04:00:49.047Z,9.20
2019-05-12T04:03:19.472Z,9.20
2019-05-12T04:05:49.902Z,9.20
2019-05-12T04:08:20.329Z,9.20
2019-05-12T04:10:50.829Z,9.30
2019-05-12T04:13:21.280Z,9.30
2019-05-12T04:15:51.782Z,9.30
2019-05-12T04:18:24.704Z,9.20
2019-05-12T04:20:54.583Z,9.20
2019-05-12T04:23:25.238Z,9.20
2019-05-12T04:26:07.029Z,9.20
2019-05-12T04:28:28.331Z,9.20
2019-05-12T04:30:58.757Z,9.20
2019-05-12T04:33:29.138Z,9.20
2019-05-12T04:35:59.561Z,9.20
2019-05-12T04:38:29.946Z,9.30
2019-05-12T04:41:00.383Z,9.20
2019-05-12T04:43:30.762Z,9.20
2019-05-12T04:46:01.561Z,9.30
2019-05-12T04:48:35.825Z,9.30
2019-05-12T04:51:05.098Z,9.30
2019-05-12T04:53:35.629Z,9.30
2019-05-12T04:56:15.650Z,9.30
2019-05-12T04:58:38.194Z,9.20
2019-05-12T05:01:09.264Z,9.30
2019-05-12T05:03:39.853Z,9.30
2019-05-12T05:06:10.283Z,9.30
2019-05-12T05:08:40.676Z,9.30
2019-05-12T05:11:11.102Z,9.40
2019-05-12T05:13:44.286Z,9.30
2019-05-12T05:16:14.534Z,9.30
2019-05-12T05:18:45.349Z,9.30
2019-05-12T05:21:16.858Z,9.40
2019-05-12T05:23:47.246Z,9.40
2019-05-12T05:26:24.376Z,9.40
2019-05-12T05:28:49.897Z,9.40
2019-05-12T05:31:20.335Z,9.40
2019-05-12T05:33:50.727Z,9.40
2019-05-12T05:36:21.163Z,9.40
2019-05-12T05:38:59.552Z,9.50
2019-05-12T05:41:25.412Z,9.50
2019-05-12T05:43:58.370Z,9.40
2019-05-12T05:46:27.909Z,9.40
2019-05-12T05:48:58.286Z,9.40
2019-05-12T05:51:28.714Z,9.30
2019-05-12T05:53:59.097Z,9.30
2019-05-12T05:56:39.715Z,9.30
2019-05-12T05:59:04.280Z,9.20
2019-05-12T06:01:34.718Z,9.20
2019-05-12T06:04:08.618Z,9.20
2019-05-12T06:06:42.499Z,9.20
2019-05-12T06:09:09.622Z,9.20
2019-05-12T06:11:40.114Z,9.20
2019-05-12T06:14:13.147Z,9.20
2019-05-12T06:16:43.365Z,9.20
2019-05-12T06:19:14.249Z,9.20
2019-05-12T06:21:44.641Z,9.20
2019-05-12T06:24:19.847Z,9.20
2019-05-12T06:26:56.745Z,9.10
2019-05-12T06:29:20.418Z,9.00
2019-05-12T06:31:51.361Z,9.10
2019-05-12T06:34:23.735Z,9.10
2019-05-12T06:36:57.041Z,9.10
2019-05-12T06:39:25.946Z,9.10
2019-05-12T06:42:01.893Z,9.10
2019-05-12T06:44:28.435Z,9.10
2019-05-12T06:47:03.566Z,9.10
2019-05-12T06:49:33.322Z,9.20
2019-05-12T06:52:06.887Z,9.20
2019-05-12T06:54:35.141Z,9.30
2019-05-12T06:57:21.383Z,9.30
2019-05-12T06:59:41.936Z,9.40
2019-05-12T07:02:09.861Z,9.40
2019-05-12T07:04:41.322Z,9.50
2019-05-12T07:07:14.195Z,9.60
2019-05-12T07:09:53.720Z,9.60
2019-05-12T07:12:16.906Z,9.60
2019-05-12T07:14:48.861Z,9.60
2019-05-12T07:17:43.927Z,9.70
2019-05-12T07:20:08.523Z,9.70
2019-05-12T07:22:44.252Z,9.70
2019-05-12T07:25:13.274Z,9.70
2019-05-12T07:27:45.704Z,9.60
2019-05-12T07:30:18.695Z,9.60
2019-05-12T07:32:56.043Z,9.60
2019-05-12T07:35:21.269Z,9.60
2019-05-12T07:37:53.905Z,9.50
2019-05-12T07:40:29.867Z,9.60
2019-05-12T07:42:59.298Z,9.50
2019-05-12T07:45:29.732Z,9.50
2019-05-12T07:48:05.690Z,9.50
2019-05-12T07:50:34.481Z,9.50
2019-05-12T07:53:08.050Z,9.50
2019-05-12T07:55:39.725Z,9.50
2019-05-12T07:58:15.520Z,9.60
2019-05-12T08:00:44.323Z,9.60
2019-05-12T08:03:20.997Z,9.60
2019-05-12T08:05:51.202Z,9.60
2019-05-12T08:08:19.122Z,9.60
2019-05-12T08:10:51.456Z,9.70
2019-05-12T08:13:23.676Z,9.70
2019-05-12T08:15:56.326Z,9.80
2019-05-12T08:18:30.612Z,10.00
2019-05-12T08:21:00.174Z,10.10
2019-05-12T08:23:33.850Z,10.30
2019-05-12T08:26:12.094Z,10.50
2019-05-12T08:28:40.549Z,10.60
2019-05-12T08:31:08.656Z,10.70
2019-05-12T08:33:39.120Z,10.60
2019-05-12T08:36:11.703Z,10.60
2019-05-12T08:38:44.253Z,10.50
2019-05-12T08:41:14.579Z,10.50
2019-05-12T08:43:51.503Z,10.40
2019-05-12T08:46:17.393Z,10.50
2019-05-12T08:48:51.631Z,10.50
2019-05-12T08:51:20.265Z,10.50
2019-05-12T08:53:56.135Z,10.50
2019-05-12T08:56:25.667Z,10.50
2019-05-12T08:58:55.099Z,10.50
2019-05-12T09:01:30.470Z,10.50
2019-05-12T09:04:00.299Z,10.60
2019-05-12T09:06:30.396Z,10.60
2019-05-12T09:09:03.377Z,10.70
2019-05-12T09:11:34.454Z,10.70
2019-05-12T09:14:05.967Z,10.70
2019-05-12T09:16:36.562Z,10.70
2019-05-12T09:19:10.303Z,10.70
2019-05-12T09:21:39.088Z,10.70
2019-05-12T09:24:13.622Z,10.70
2019-05-12T09:26:43.373Z,10.80
2019-05-12T09:29:14.972Z,10.70
2019-05-12T09:31:45.401Z,10.80
2019-05-12T09:34:16.627Z,10.80
2019-05-12T09:36:51.891Z,10.80
2019-05-12T09:39:19.220Z,10.70
2019-05-12T09:41:52.662Z,10.70
2019-05-12T09:44:26.503Z,10.60
2019-05-12T09:46:54.009Z,10.60
2019-05-12T09:49:31.280Z,10.50
2019-05-12T09:51:56.622Z,10.50
2019-05-12T09:54:35.246Z,10.50
2019-05-12T09:56:59.815Z,10.50
2019-05-12T09:59:30.314Z,10.40
2019-05-12T10:02:00.744Z,10.40
2019-05-12T10:04:32.968Z,10.30
2019-05-12T10:07:03.802Z,10.30
2019-05-12T10:09:34.313Z,10.20
2019-05-12T10:12:05.526Z,10.10
2019-05-12T10:14:36.136Z,10.10
2019-05-12T10:17:06.637Z,10.10
2019-05-12T10:19:37.123Z,10.00
2019-05-12T10:22:07.563Z,10.00
2019-05-12T10:24:41.431Z,9.90
2019-05-12T10:27:10.153Z,9.90
2019-05-12T10:29:40.534Z,9.80
2019-05-12T10:32:13.222Z,9.90
2019-05-12T10:34:44.378Z,9.90
2019-05-12T10:37:19.326Z,10.00
2019-05-12T10:39:47.703Z,9.90
2019-05-12T10:42:18.126Z,9.90
2019-05-12T10:44:48.503Z,9.80
2019-05-12T10:47:18.928Z,9.80
2019-05-12T10:49:49.388Z,9.80
2019-05-12T10:52:19.824Z,9.80
2019-05-12T10:54:50.275Z,9.90
2019-05-12T10:57:20.781Z,9.80
2019-05-12T10:59:53.277Z,9.80
2019-05-12T11:02:26.569Z,9.70
2019-05-12T11:04:55.495Z,9.60
2019-05-12T11:07:27.969Z,9.60
2019-05-12T11:10:03.048Z,9.50
2019-05-12T11:12:30.131Z,9.50
2019-05-12T11:15:01.154Z,9.40
2019-05-12T11:17:49.833Z,9.30
2019-05-12T11:20:21.367Z,9.30
2019-05-12T11:22:54.084Z,9.20
2019-05-12T11:25:24.653Z,9.20
2019-05-12T11:27:55.504Z,9.30
2019-05-12T11:30:28.549Z,9.40
2019-05-12T11:32:59.847Z,9.50
2019-05-12T11:35:30.335Z,9.50
2019-05-12T11:38:00.762Z,9.50
2019-05-12T11:40:31.212Z,9.50
2019-05-12T11:43:04.235Z,9.50
2019-05-12T11:45:34.013Z,9.50
2019-05-12T11:48:08.422Z,9.50
2019-05-12T11:50:40.429Z,9.50
2019-05-12T11:53:09.299Z,9.50
2019-05-12T11:55:39.691Z,9.40
2019-05-12T11:58:11.681Z,9.50
2019-05-12T12:00:49.608Z,9.50
2019-05-12T12:03:20.068Z,9.40
2019-05-12T12:05:50.445Z,9.40
2019-05-12T12:08:20.882Z,9.50
2019-05-12T12:10:53.925Z,9.50
2019-05-12T12:13:28.571Z,9.50
2019-05-12T12:16:00.704Z,9.50
2019-05-12T12:18:27.685Z,9.60
2019-05-12T12:21:04.154Z,9.60
2019-05-12T12:23:30.199Z,9.60
2019-05-12T12:26:00.626Z,9.70
2019-05-12T12:28:31.051Z,9.70
2019-05-12T12:31:05.086Z,9.60
2019-05-12T12:33:38.664Z,9.60
2019-05-12T12:36:05.895Z,9.50
2019-05-12T12:38:36.367Z,9.40
2019-05-12T12:41:06.751Z,9.40
2019-05-12T12:43:37.404Z,9.40
2019-05-12T12:46:19.800Z,9.40
2019-05-12T12:48:44.928Z,9.40
2019-05-12T12:51:17.613Z,9.40
2019-05-12T12:53:47.445Z,9.40
2019-05-12T12:56:27.717Z,9.40
2019-05-12T12:58:50.480Z,9.40
2019-05-12T13:01:26.897Z,9.40
2019-05-12T13:03:53.708Z,9.40
2019-05-12T13:06:24.169Z,9.40
2019-05-12T13:08:54.720Z,9.40
2019-05-12T13:11:33.077Z,9.40
2019-05-12T13:14:00.814Z,9.50
2019-05-12T13:16:31.311Z,9.50
2019-05-12T13:19:06.200Z,9.50
2019-05-12T13:21:35.884Z,9.60
2019-05-12T13:24:06.392Z,9.60
2019-05-12T13:26:39.029Z,9.60
2019-05-12T13:29:09.520Z,9.60
2019-05-12T13:31:41.041Z,9.60
2019-05-12T13:34:14.429Z,9.60
2019-05-12T13:36:48.002Z,9.60
2019-05-12T13:39:18.557Z,9.60
2019-05-12T13:41:50.283Z,9.60
2019-05-12T13:44:23.968Z,9.60
2019-05-12T13:46:58.529Z,9.50
2019-05-12T13:49:30.143Z,9.50
2019-05-12T13:51:58.220Z,9.50
2019-05-12T13:54:30.153Z,9.50
2019-05-12T13:57:03.720Z,9.50
2019-05-12T13:59:34.054Z,9.50
2019-05-12T14:02:04.681Z,9.50
2019-05-12T14:04:35.067Z,9.40
2019-05-12T14:07:09.200Z,9.40
2019-05-12T14:09:37.562Z,9.40
2019-05-12T14:12:07.993Z,9.40
2019-05-12T14:14:38.328Z,9.40
2019-05-12T14:17:08.793Z,9.30
2019-05-12T14:19:39.182Z,9.30
2019-05-12T14:22:15.156Z,9.30
2019-05-12T14:24:46.041Z,9.30
2019-05-12T14:27:14.033Z,9.30
2019-05-12T14:29:44.371Z,9.30
2019-05-12T14:32:17.496Z,9.30
2019-05-12T14:34:51.135Z,9.20
2019-05-12T14:37:20.050Z,9.30
2019-05-12T14:39:53.502Z,9.30
2019-05-12T14:42:26.202Z,9.30
2019-05-12T14:44:55.761Z,9.30
2019-05-12T14:47:30.011Z,9.20
2019-05-12T14:49:58.261Z,9.30
2019-05-12T14:52:28.679Z,9.20
2019-05-12T14:54:59.070Z,9.20
2019-05-12T14:57:34.729Z,9.20
2019-05-12T15:00:03.810Z,9.20
2019-05-12T15:02:34.158Z,9.20
2019-05-12T15:05:10.627Z,9.30
2019-05-12T15:07:42.683Z,9.20
2019-05-12T15:10:10.377Z,9.30
2019-05-12T15:12:40.808Z,9.30
2019-05-12T15:15:18.373Z,9.20
2019-05-12T15:17:44.583Z,9.20
2019-05-12T15:20:15.259Z,9.20
2019-05-12T15:22:51.651Z,9.20
2019-05-12T15:25:17.790Z,9.10
2019-05-12T15:27:48.591Z,9.10
2019-05-12T15:30:23.463Z,9.10
2019-05-12T15:32:51.067Z,9.10
2019-05-12T15:35:23.957Z,9.10
2019-05-12T15:37:55.156Z,9.20
2019-05-12T15:40:25.646Z,9.20
2019-05-12T15:43:00.414Z,9.10
2019-05-12T15:45:29.127Z,9.10
2019-05-12T15:47:59.537Z,9.10
2019-05-12T15:50:29.918Z,9.20
2019-05-12T15:53:00.339Z,9.20
2019-05-12T15:55:32.832Z,9.20
2019-05-12T15:58:05.511Z,9.20
2019-05-12T16:00:38.220Z,9.20
2019-05-12T16:03:07.581Z,9.20
2019-05-12T16:05:37.958Z,9.30
2019-05-12T16:08:08.414Z,9.30
2019-05-12T16:10:38.756Z,9.20
2019-05-12T16:13:09.246Z,9.20
2019-05-12T16:15:39.622Z,9.20
2019-05-12T16:18:10.320Z,9.20
2019-05-12T16:20:40.741Z,9.20
2019-05-12T16:23:17.212Z,9.20
2019-05-12T16:25:44.235Z,9.20
2019-05-12T16:28:22.700Z,9.10
2019-05-12T16:30:47.336Z,9.20
2019-05-12T16:33:22.065Z,9.20
2019-05-12T16:35:49.988Z,9.20
2019-05-12T16:38:20.448Z,9.20
2019-05-12T16:40:50.790Z,9.10
2019-05-12T16:43:23.621Z,9.10
2019-05-12T16:45:53.792Z,9.10
2019-05-12T16:48:32.090Z,9.20
2019-05-12T16:50:56.454Z,9.10
2019-05-12T16:53:27.844Z,9.20
2019-05-12T16:55:58.530Z,9.30
2019-05-12T16:58:35.176Z,9.20
2019-05-12T17:01:04.058Z,9.30
2019-05-12T17:03:34.438Z,9.30
2019-05-12T17:06:05.064Z,9.20
2019-05-12T17:08:35.447Z,9.20
2019-05-12T17:11:23.075Z,9.20
2019-05-12T17:13:38.117Z,9.20
2019-05-12T17:16:08.582Z,9.20
2019-05-12T17:18:38.978Z,9.20
2019-05-12T17:21:09.400Z,9.20
2019-05-12T17:23:39.852Z,9.20
2019-05-12T17:26:10.277Z,9.20
2019-05-12T17:28:40.731Z,9.20
2019-05-12T17:31:11.196Z,9.10
2019-05-12T17:33:41.577Z,9.10
2019-05-12T17:36:17.472Z,9.10
2019-05-12T17:38:44.290Z,9.10
2019-05-12T17:41:17.835Z,9.00
2019-05-12T17:43:56.621Z,8.90
2019-05-12T17:46:19.021Z,9.00
2019-05-12T17:48:50.602Z,8.90
2019-05-12T17:51:26.774Z,8.90
2019-05-12T17:53:54.049Z,8.90
2019-05-12T17:56:34.008Z,8.90
2019-05-12T17:58:57.609Z,8.80
2019-05-12T18:01:31.300Z,8.80
2019-05-12T18:04:00.131Z,8.80
2019-05-12T18:06:31.070Z,8.80
2019-05-12T18:09:03.749Z,8.70
2019-05-12T18:11:34.068Z,8.70
2019-05-12T18:14:07.204Z,8.70
2019-05-12T18:16:36.886Z,8.60
2019-05-12T18:19:08.966Z,8.70
2019-05-12T18:21:39.445Z,8.70
2019-05-12T18:24:11.922Z,8.70
2019-05-12T18:26:47.153Z,8.60
2019-05-12T18:29:14.739Z,8.60
2019-05-12T18:31:45.311Z,8.60
2019-05-12T18:34:16.136Z,8.60
2019-05-12T18:36:49.031Z,8.60
2019-05-12T18:39:19.192Z,8.50
2019-05-12T18:41:49.606Z,8.60
2019-05-12T18:44:26.261Z,8.60
2019-05-12T18:46:53.977Z,8.60
2019-05-12T18:49:24.433Z,8.50
2019-05-12T18:51:57.046Z,8.50
2019-05-12T18:54:27.011Z,8.50
2019-05-12T18:57:03.119Z,8.40
2019-05-12T18:59:30.707Z,8.40
2019-05-12T19:02:03.477Z,8.30
2019-05-12T19:04:33.924Z,8.30
2019-05-12T19:07:05.413Z,8.20
2019-05-12T19:09:35.797Z,8.20
2019-05-12T19:12:15.670Z,8.20
2019-05-12T19:14:40.425Z,8.30
2019-05-12T19:17:11.151Z,8.20
2019-05-12T19:19:41.614Z,8.20
2019-05-12T19:22:14.145Z,8.30
2019-05-12T19:24:44.508Z,8.20
2019-05-12T19:27:19.000Z,8.20
2019-05-12T19:29:49.149Z,8.10
2019-05-12T19:32:19.198Z,8.10
2019-05-12T19:34:54.467Z,8.10
2019-05-12T19:37:29.587Z,8.10
2019-05-12T19:39:57.146Z,8.10
2019-05-12T19:42:27.572Z,8.10
2019-05-12T19:44:59.944Z,8.10
2019-05-12T19:47:33.966Z,8.10
2019-05-12T19:50:08.853Z,8.10
2019-05-12T19:52:34.857Z,8.00
2019-05-12T19:55:14.127Z,8.00
2019-05-12T19:57:46.250Z,8.00
2019-05-12T20:00:17.118Z,8.00
2019-05-12T20:02:50.581Z,8.00
2019-05-12T20:05:23.552Z,8.00
2019-05-12T20:07:53.814Z,8.00
2019-05-12T20:10:26.100Z,7.90
2019-05-12T20:12:58.260Z,7.90
2019-05-12T20:15:30.177Z,7.90
2019-05-12T20:18:00.993Z,7.90
2019-05-12T20:20:36.776Z,7.90
2019-05-12T20:23:04.197Z,7.90
2019-05-12T20:25:38.855Z,7.80
2019-05-12T20:28:11.381Z,7.80
2019-05-12T20:30:43.835Z,7.80
2019-05-12T20:33:14.849Z,7.80
2019-05-12T20:35:49.266Z,7.80
2019-05-12T20:38:27.130Z,7.80
2019-05-12T20:40:55.820Z,7.70
2019-05-12T20:43:32.373Z,7.70
2019-05-12T20:45:58.339Z,7.70
2019-05-12T20:48:34.937Z,7.60
2019-05-12T20:51:08.806Z,7.60
2019-05-12T20:53:43.615Z,7.60
2019-05-12T20:56:20.175Z,7.60
2019-05-12T20:58:49.062Z,7.60
2019-05-12T21:01:20.109Z,7.60
2019-05-12T21:03:55.600Z,7.60
2019-05-12T21:06:41.618Z,7.60
2019-05-12T21:09:07.946Z,7.60
2019-05-12T21:11:40.816Z,7.60
2019-05-12T21:14:12.453Z,7.60
2019-05-12T21:16:45.258Z,7.60
2019-05-12T21:19:15.685Z,7.60
2019-05-12T21:21:47.612Z,7.60
2019-05-12T21:24:19.725Z,7.60
2019-05-12T21:26:54.739Z,7.50
2019-05-12T21:29:30.010Z,7.50
2019-05-12T21:32:12.174Z,7.50
2019-05-12T21:34:37.171Z,7.50
2019-05-12T21:37:08.639Z,7.50
2019-05-12T21:39:46.781Z,7.50
2019-05-12T21:42:18.494Z,7.50
2019-05-12T21:44:53.262Z,7.40
2019-05-12T21:47:42.622Z,7.40
2019-05-12T21:50:13.838Z,7.40
2019-05-12T21:52:47.045Z,7.40
2019-05-12T21:55:30.329Z,7.30
2019-05-12T21:58:12.138Z,7.30
2019-05-12T22:01:02.600Z,7.30
2019-05-12T22:03:29.784Z,7.20
2019-05-12T22:06:16.717Z,7.20
2019-05-12T22:08:44.216Z,7.20
2019-05-12T22:11:16.899Z,7.20
2019-05-12T22:13:55.852Z,7.20
2019-05-12T22:16:23.456Z,7.20
2019-05-12T22:19:03.599Z,7.20
2019-05-12T22:21:35.791Z,7.10
2019-05-12T22:24:06.305Z,7.10
2019-05-12T22:26:40.319Z,7.00
2019-05-12T22:29:13.509Z,6.90
2019-05-12T22:31:46.959Z,6.90
2019-05-12T22:34:15.751Z,6.80
2019-05-12T22:36:55.387Z,6.70
2019-05-12T22:39:18.305Z,6.70
2019-05-12T22:41:48.798Z,6.60
2019-05-12T22:44:22.130Z,6.60
2019-05-12T22:46:51.363Z,6.60
2019-05-12T22:49:21.763Z,6.50
2019-05-12T22:51:54.673Z,6.40
2019-05-12T22:54:24.482Z,6.40
2019-05-12T22:56:56.659Z,6.30
2019-05-12T22:59:32.059Z,6.30
2019-05-12T23:01:59.180Z,6.40
2019-05-12T23:04:35.602Z,6.30
2019-05-12T23:07:01.693Z,6.30
2019-05-12T23:09:33.941Z,6.30
2019-05-12T23:12:09.603Z,6.40
2019-05-12T23:14:36.638Z,6.40
2019-05-12T23:17:07.525Z,6.40
2019-05-12T23:19:43.035Z,6.40
2019-05-12T23:22:11.115Z,6.50
2019-05-12T23:24:41.502Z,6.40
2019-05-12T23:27:13.664Z,6.40
2019-05-12T23:29:44.476Z,6.40
2019-05-12T23:32:15.220Z,6.40
2019-05-12T23:34:56.522Z,6.40
2019-05-12T23:37:17.871Z,6.40
2019-05-12T23:39:48.257Z,6.40
2019-05-12T23:42:18.676Z,6.30
2019-05-12T23:44:49.058Z,6.30
2019-05-12T23:47:19.493Z,6.30
2019-05-12T23:49:49.881Z,6.30
2019-05-12T23:52:20.367Z,6.30
2019-05-12T23:54:50.765Z,6.30
2019-05-12T23:57:21.187Z,6.30
2019-05-12T23:59:51.575Z,6.40
